Time;durP1;ratioP1;P1;durP2;ratioP2;P2;SDS_P1;SDS_P2;PMS_P1;PMS_P2;Temp;Humidity;BMP_temperature;BMP_pressure;BME280_temperature;BME280_humidity;BME280_pressure;Samples;Min_cycle;Max_cycle;Signal;HPM_P1;HPM_P2
2022/02/21 00:02:00;;;;;;;8.77;3.87;;;7.00;58.80;;;;;;5138711;27;20027;-86
2022/02/21 00:04:25;;;;;;;12.83;5.80;;;7.00;58.80;;;;;;5123286;27;20721;-87
2022/02/21 00:06:51;;;;;;;13.53;6.00;;;7.00;58.90;;;;;;5128566;27;20035;-87
2022/02/21 00:09:17;;;;;;;12.13;5.80;;;7.00;59.00;;;;;;5135377;27;20023;-86
2022/02/21 00:11:42;;;;;;;10.93;5.90;;;7.00;59.10;;;;;;5151384;27;20027;-86
2022/02/21 00:14:08;;;;;;;12.37;5.40;;;7.00;59.20;;;;;;5130422;27;20047;-86
2022/02/21 00:16:34;;;;;;;16.20;5.63;;;7.00;59.30;;;;;;5121602;27;20023;-86
2022/02/21 00:19:00;;;;;;;9.60;5.10;;;7.00;59.30;;;;;;5142126;27;20031;-86
2022/02/21 00:21:26;;;;;;;11.57;5.40;;;7.00;59.30;;;;;;5139215;27;20023;-87
2022/02/21 00:23:52;;;;;;;12.40;5.40;;;7.00;59.30;;;;;;5136365;27;20114;-87
2022/02/21 00:26:18;;;;;;;9.67;5.30;;;7.00;59.40;;;;;;5143120;27;20190;-86
2022/02/21 00:28:47;;;;;;;15.30;6.27;;;6.90;59.50;;;;;;5135157;27;20023;-87
2022/02/21 00:31:14;;;;;;;12.13;5.40;;;6.90;59.60;;;;;;5145814;27;20037;-87
2022/02/21 00:33:40;;;;;;;9.43;5.60;;;7.00;59.60;;;;;;5114605;28;20395;-87
2022/02/21 00:36:06;;;;;;;10.13;6.00;;;6.90;59.80;;;;;;5134147;27;20031;-87
2022/02/21 00:38:32;;;;;;;13.63;6.03;;;6.80;59.80;;;;;;5139120;27;20023;-87
2022/02/21 00:40:58;;;;;;;11.77;5.43;;;6.80;60.00;;;;;;5131332;27;20024;-87
2022/02/21 00:43:24;;;;;;;12.20;6.10;;;6.90;60.00;;;;;;5132698;27;20026;-87
2022/02/21 00:45:49;;;;;;;17.37;7.83;;;6.80;60.00;;;;;;5129371;27;20027;-86
2022/02/21 00:48:16;;;;;;;33.40;12.40;;;6.80;60.10;;;;;;5124022;27;20088;-87
2022/02/21 00:50:42;;;;;;;20.73;8.80;;;6.90;60.10;;;;;;5116044;27;20038;-88
2022/02/21 00:53:07;;;;;;;18.17;7.57;;;6.80;60.00;;;;;;5118911;27;20019;-87
2022/02/21 00:55:34;;;;;;;16.47;6.77;;;6.90;60.20;;;;;;5121058;27;20015;-87
2022/02/21 00:58:01;;;;;;;12.97;5.60;;;6.80;60.10;;;;;;5149294;27;20038;-87
2022/02/21 01:00:28;;;;;;;15.73;6.27;;;6.80;60.20;;;;;;5132836;27;20036;-87
2022/02/21 01:02:54;;;;;;;18.73;6.10;;;6.80;60.30;;;;;;5149497;27;20032;-87
2022/02/21 01:05:20;;;;;;;13.37;6.00;;;6.90;60.20;;;;;;5127706;27;20386;-86
2022/02/21 01:07:46;;;;;;;12.53;5.93;;;6.90;60.20;;;;;;5149958;27;20015;-87
2022/02/21 01:10:12;;;;;;;15.10;5.70;;;6.90;60.10;;;;;;5150445;27;20023;-87
2022/02/21 01:12:38;;;;;;;11.33;5.23;;;6.90;60.20;;;;;;5139577;27;20022;-87
2022/02/21 01:15:05;;;;;;;11.20;4.77;;;6.80;60.20;;;;;;5124681;27;20114;-87
2022/02/21 01:17:32;;;;;;;11.30;4.73;;;6.80;60.20;;;;;;5148853;27;20031;-87
2022/02/21 01:19:59;;;;;;;13.77;5.23;;;6.80;60.40;;;;;;5143439;27;20096;-86
2022/02/21 01:22:25;;;;;;;13.53;5.20;;;6.80;60.30;;;;;;5118753;27;20487;-85
2022/02/21 01:24:51;;;;;;;11.93;4.63;;;6.90;60.40;;;;;;5120833;27;20058;-86
2022/02/21 01:27:17;;;;;;;10.67;5.03;;;6.80;60.40;;;;;;5125027;27;20028;-86
2022/02/21 01:29:43;;;;;;;12.77;5.47;;;6.80;60.40;;;;;;5143986;27;20076;-86
2022/02/21 01:32:10;;;;;;;11.87;5.70;;;6.80;60.50;;;;;;5129762;27;20028;-86
2022/02/21 01:34:36;;;;;;;15.03;6.93;;;6.70;60.50;;;;;;5141977;27;20031;-85
2022/02/21 01:37:01;;;;;;;13.23;6.30;;;6.80;60.60;;;;;;5134642;27;20041;-86
2022/02/21 01:39:27;;;;;;;12.20;5.13;;;6.80;60.70;;;;;;5130050;27;20106;-86
2022/02/21 01:41:53;;;;;;;12.87;4.73;;;6.80;60.80;;;;;;5135081;27;20020;-86
2022/02/21 01:44:19;;;;;;;8.17;4.70;;;6.90;60.70;;;;;;5146283;27;20430;-86
2022/02/21 01:46:45;;;;;;;9.37;4.30;;;6.80;60.70;;;;;;5134078;27;20061;-86
2022/02/21 01:49:13;;;;;;;16.73;6.20;;;6.70;60.90;;;;;;5119705;28;20080;-85
2022/02/21 01:51:39;;;;;;;9.97;3.33;;;6.70;61.10;;;;;;5132820;27;20023;-87
2022/02/21 01:54:07;;;;;;;8.73;3.10;;;6.70;61.00;;;;;;5141761;27;20073;-86
2022/02/21 01:56:34;;;;;;;7.57;3.90;;;6.70;60.90;;;;;;5121335;28;20058;-86
2022/02/21 01:59:00;;;;;;;13.00;5.13;;;6.70;60.90;;;;;;5122559;28;20043;-86
2022/02/21 02:01:26;;;;;;;9.43;4.50;;;6.70;61.10;;;;;;5137405;27;20024;-87
2022/02/21 02:03:52;;;;;;;9.37;4.83;;;6.70;61.20;;;;;;5133664;27;20062;-87
2022/02/21 02:06:19;;;;;;;7.37;4.30;;;6.70;61.20;;;;;;5151141;27;20513;-86
2022/02/21 02:08:46;;;;;;;8.37;4.20;;;6.70;61.10;;;;;;5129305;28;20027;-86
2022/02/21 02:11:13;;;;;;;9.63;4.10;;;6.60;61.40;;;;;;5122474;27;20115;-86
2022/02/21 02:13:39;;;;;;;9.77;4.20;;;6.60;61.60;;;;;;5127517;27;20027;-85
2022/02/21 02:16:05;;;;;;;10.43;4.63;;;6.60;61.40;;;;;;5148200;27;20030;-85
2022/02/21 02:18:31;;;;;;;6.47;4.00;;;6.60;61.40;;;;;;5128452;28;20113;-85
2022/02/21 02:20:57;;;;;;;7.83;3.90;;;6.60;61.40;;;;;;5133031;28;20091;-85
2022/02/21 02:23:23;;;;;;;9.07;3.30;;;6.60;61.50;;;;;;5146300;27;20023;-85
2022/02/21 02:25:48;;;;;;;6.87;3.50;;;6.70;61.60;;;;;;5130713;28;20085;-85
2022/02/21 02:28:14;;;;;;;5.30;2.93;;;6.60;61.50;;;;;;5140616;27;20039;-85
2022/02/21 02:30:40;;;;;;;5.13;2.30;;;6.70;61.50;;;;;;5119909;28;20028;-85
2022/02/21 02:33:06;;;;;;;6.70;3.53;;;6.70;61.50;;;;;;5142084;27;20024;-85
2022/02/21 02:35:34;;;;;;;8.90;4.00;;;6.70;61.50;;;;;;5114262;28;20024;-85
2022/02/21 02:38:01;;;;;;;8.37;5.33;;;6.60;61.40;;;;;;5124894;27;20028;-85
2022/02/21 02:40:27;;;;;;;9.97;4.63;;;6.70;62.00;;;;;;5143229;27;20380;-86
2022/02/21 02:42:54;;;;;;;11.17;4.97;;;6.70;61.40;;;;;;5121312;28;20023;-85
2022/02/21 02:45:20;;;;;;;11.17;4.30;;;6.70;61.50;;;;;;5131817;27;20015;-85
2022/02/21 02:47:45;;;;;;;10.00;4.90;;;6.60;61.50;;;;;;5131679;27;20039;-86
2022/02/21 02:50:11;;;;;;;9.47;4.60;;;6.50;61.40;;;;;;5135503;27;20400;-86
2022/02/21 02:52:37;;;;;;;8.77;4.80;;;6.60;61.60;;;;;;5135058;27;20020;-86
2022/02/21 02:55:04;;;;;;;10.97;4.90;;;6.50;61.70;;;;;;5141425;27;20492;-86
2022/02/21 02:57:29;;;;;;;7.90;4.73;;;6.50;61.80;;;;;;5118802;27;20051;-86
2022/02/21 02:59:57;;;;;;;9.73;4.70;;;6.50;61.80;;;;;;5150907;27;20053;-86
2022/02/21 03:02:23;;;;;;;8.03;4.53;;;6.50;61.80;;;;;;5123167;27;20073;-86
2022/02/21 03:04:49;;;;;;;6.70;4.23;;;6.50;61.80;;;;;;5126674;27;20027;-86
2022/02/21 03:07:15;;;;;;;7.23;4.60;;;6.50;61.80;;;;;;5118874;27;20030;-87
2022/02/21 03:09:40;;;;;;;8.27;4.80;;;6.50;61.70;;;;;;5137261;27;20024;-86
2022/02/21 03:12:07;;;;;;;9.70;4.57;;;6.60;61.70;;;;;;5118279;27;20023;-86
2022/02/21 03:14:33;;;;;;;13.00;4.73;;;6.50;62.30;;;;;;5146018;27;20051;-87
2022/02/21 03:16:58;;;;;;;6.70;4.30;;;6.50;61.80;;;;;;5122229;27;20447;-86
2022/02/21 03:19:24;;;;;;;8.97;3.40;;;6.40;61.60;;;;;;5118926;27;20064;-86
2022/02/21 03:21:56;;;;;;;7.40;3.70;;;6.40;61.90;;;;;;5116100;27;20016;-86
2022/02/21 03:24:22;;;;;;;7.00;3.27;;;6.40;62.00;;;;;;5125980;27;20030;-86
2022/02/21 03:26:48;;;;;;;7.03;2.93;;;6.40;62.00;;;;;;5137730;27;20782;-86
2022/02/21 03:29:14;;;;;;;5.73;3.13;;;6.40;62.00;;;;;;5133139;27;21042;-86
2022/02/21 03:31:40;;;;;;;6.63;2.83;;;6.40;62.00;;;;;;5146641;27;20062;-86
2022/02/21 03:34:05;;;;;;;5.50;2.70;;;6.40;62.00;;;;;;5130557;27;20399;-87
2022/02/21 03:36:31;;;;;;;10.67;2.20;;;6.50;61.80;;;;;;5145639;27;20479;-87
2022/02/21 03:38:57;;;;;;;4.93;2.83;;;6.50;62.10;;;;;;5140763;27;20111;-87
2022/02/21 03:41:23;;;;;;;6.23;2.87;;;6.50;62.00;;;;;;5125994;27;20019;-87
2022/02/21 03:43:48;;;;;;;7.60;3.70;;;6.50;61.90;;;;;;5126040;27;20028;-87
2022/02/21 03:46:14;;;;;;;6.43;3.43;;;6.50;61.80;;;;;;5131380;27;20494;-87
2022/02/21 03:48:41;;;;;;;6.53;3.17;;;6.50;61.80;;;;;;5128369;27;20043;-87
2022/02/21 03:51:07;;;;;;;7.77;3.90;;;6.50;61.80;;;;;;5145941;27;20501;-87
2022/02/21 03:53:33;;;;;;;8.70;4.77;;;6.50;61.80;;;;;;5129320;27;20032;-87
2022/02/21 03:55:58;;;;;;;9.20;5.03;;;6.50;62.00;;;;;;5150340;27;20066;-87
2022/02/21 03:58:24;;;;;;;8.20;4.30;;;6.50;62.00;;;;;;5131330;27;20432;-87
2022/02/21 04:00:50;;;;;;;10.07;4.57;;;6.50;62.00;;;;;;5127575;27;20027;-87
2022/02/21 04:03:16;;;;;;;10.90;5.90;;;6.50;62.00;;;;;;5146076;27;20023;-87
2022/02/21 04:05:41;;;;;;;10.20;4.47;;;6.50;62.00;;;;;;5143459;27;20035;-87
2022/02/21 04:08:07;;;;;;;9.33;5.37;;;6.60;62.00;;;;;;5124474;27;20488;-87
2022/02/21 04:10:33;;;;;;;12.43;5.50;;;6.50;62.00;;;;;;5121562;27;20031;-87
2022/02/21 04:12:58;;;;;;;10.20;4.70;;;6.50;62.10;;;;;;5127026;27;20480;-87
2022/02/21 04:15:24;;;;;;;9.03;4.53;;;6.40;62.20;;;;;;5127763;27;20027;-87
2022/02/21 04:17:52;;;;;;;12.80;4.57;;;6.50;62.30;;;;;;5148380;27;20031;-87
2022/02/21 04:20:25;;;;;;;12.97;5.03;;;6.50;62.90;;;;;;5122977;27;20023;-87
2022/02/21 04:22:51;;;;;;;10.20;4.67;;;6.50;62.40;;;;;;5134005;27;20398;-87
2022/02/21 04:25:17;;;;;;;12.53;4.60;;;6.40;62.30;;;;;;5146226;27;20025;-87
2022/02/21 04:27:45;;;;;;;9.63;5.07;;;6.40;62.60;;;;;;5127797;27;20031;-87
2022/02/21 04:30:13;;;;;;;11.40;6.50;;;6.40;62.60;;;;;;5146152;27;20058;-86
2022/02/21 04:32:40;;;;;;;18.03;9.23;;;6.40;62.60;;;;;;5131276;27;20590;-86
2022/02/21 04:35:07;;;;;;;10.37;5.90;;;6.50;62.60;;;;;;5124537;27;20024;-86
2022/02/21 04:37:34;;;;;;;16.23;8.83;;;6.50;62.60;;;;;;5134697;27;20710;-86
2022/02/21 04:40:00;;;;;;;15.37;8.50;;;6.50;62.70;;;;;;5130293;27;20685;-86
2022/02/21 04:42:26;;;;;;;12.23;6.17;;;6.50;62.50;;;;;;5129607;27;20034;-86
2022/02/21 04:44:52;;;;;;;12.53;5.00;;;6.50;62.40;;;;;;5147872;27;20023;-86
2022/02/21 04:47:18;;;;;;;9.10;5.17;;;6.50;62.40;;;;;;5146114;27;20054;-86
2022/02/21 04:49:43;;;;;;;12.87;4.63;;;6.50;62.30;;;;;;5146715;27;20480;-86
2022/02/21 04:52:09;;;;;;;9.63;4.33;;;6.50;62.40;;;;;;5154989;27;20047;-86
2022/02/21 04:54:35;;;;;;;8.17;4.03;;;6.50;62.40;;;;;;5132778;27;20117;-86
2022/02/21 04:57:01;;;;;;;9.20;4.97;;;6.50;62.40;;;;;;5133337;27;20060;-86
2022/02/21 04:59:26;;;;;;;12.40;6.83;;;6.50;62.40;;;;;;5131430;27;20023;-86
2022/02/21 05:01:52;;;;;;;11.20;4.50;;;6.50;62.50;;;;;;5127290;27;20038;-86
2022/02/21 05:04:18;;;;;;;12.13;4.80;;;6.50;62.70;;;;;;5120844;27;20034;-86
2022/02/21 05:06:44;;;;;;;11.83;5.13;;;6.50;62.70;;;;;;5138506;27;20107;-85
2022/02/21 05:09:09;;;;;;;8.67;4.90;;;6.50;62.60;;;;;;5144348;27;20379;-86
2022/02/21 05:11:35;;;;;;;14.53;4.80;;;6.50;62.50;;;;;;5113758;27;20036;-86
2022/02/21 05:14:01;;;;;;;7.63;4.03;;;6.40;62.60;;;;;;5127576;27;20395;-86
2022/02/21 05:16:26;;;;;;;10.60;4.93;;;6.40;62.60;;;;;;5124695;27;20069;-87
2022/02/21 05:18:52;;;;;;;10.80;4.40;;;6.50;62.60;;;;;;5122332;27;20027;-87
2022/02/21 05:21:18;;;;;;;11.67;5.27;;;6.40;62.70;;;;;;5133640;27;20024;-87
2022/02/21 05:23:43;;;;;;;7.23;4.40;;;6.50;62.70;;;;;;5117021;27;20476;-87
2022/02/21 05:26:09;;;;;;;11.17;6.33;;;6.40;62.60;;;;;;5130306;27;20047;-87
2022/02/21 05:28:35;;;;;;;10.73;6.77;;;6.50;62.70;;;;;;5140134;27;20144;-87
2022/02/21 05:31:01;;;;;;;12.03;6.50;;;6.50;62.70;;;;;;5132829;27;20031;-87
2022/02/21 05:33:26;;;;;;;10.33;6.33;;;6.60;62.70;;;;;;5131896;27;20038;-87
2022/02/21 05:35:52;;;;;;;14.27;6.10;;;6.50;62.50;;;;;;5128284;27;20392;-87
2022/02/21 05:38:18;;;;;;;12.67;5.53;;;6.50;62.40;;;;;;5128857;27;20034;-87
2022/02/21 05:40:43;;;;;;;7.93;4.67;;;6.40;62.50;;;;;;5139249;27;20181;-87
2022/02/21 05:43:09;;;;;;;10.77;4.90;;;6.40;62.80;;;;;;5133997;27;20027;-87
2022/02/21 05:45:35;;;;;;;13.70;4.93;;;6.40;62.80;;;;;;5131428;28;20028;-88
2022/02/21 05:48:00;;;;;;;11.57;5.37;;;6.40;62.80;;;;;;5144097;27;20074;-87
2022/02/21 05:50:26;;;;;;;7.23;4.07;;;6.40;62.80;;;;;;5154990;27;20049;-87
2022/02/21 05:52:52;;;;;;;6.67;3.87;;;6.40;62.90;;;;;;5129401;27;20119;-86
2022/02/21 05:55:17;;;;;;;12.27;4.50;;;6.40;63.00;;;;;;5120028;27;20032;-86
2022/02/21 05:57:45;;;;;;;13.50;4.53;;;6.40;62.90;;;;;;5112439;28;20036;-87
2022/02/21 06:00:12;;;;;;;13.63;5.73;;;6.30;63.00;;;;;;5129816;27;20066;-86
2022/02/21 06:02:37;;;;;;;10.20;5.63;;;6.40;63.30;;;;;;5133054;27;20027;-86
2022/02/21 06:05:03;;;;;;;12.60;6.17;;;6.30;63.30;;;;;;5142604;27;20031;-86
2022/02/21 06:07:29;;;;;;;14.37;7.10;;;6.40;63.40;;;;;;5142136;27;20330;-84
2022/02/21 06:09:55;;;;;;;18.67;7.40;;;6.30;63.40;;;;;;5147241;27;20034;-85
2022/02/21 06:12:21;;;;;;;16.13;7.70;;;6.30;63.50;;;;;;5134049;27;20385;-84
2022/02/21 06:14:46;;;;;;;15.87;6.00;;;6.40;63.50;;;;;;5163052;27;20050;-84
2022/02/21 06:17:12;;;;;;;10.13;6.20;;;6.30;63.20;;;;;;5144145;27;20102;-85
2022/02/21 06:19:38;;;;;;;20.33;6.90;;;6.30;63.10;;;;;;5127600;27;20023;-85
2022/02/21 06:22:04;;;;;;;15.87;7.03;;;6.30;63.40;;;;;;5137233;27;20027;-85
2022/02/21 06:24:29;;;;;;;11.93;6.53;;;6.40;63.40;;;;;;5139222;27;20092;-84
2022/02/21 06:26:55;;;;;;;12.83;7.10;;;6.30;63.30;;;;;;5129177;27;20058;-85
2022/02/21 06:29:21;;;;;;;13.13;7.70;;;6.30;63.40;;;;;;5124598;27;21358;-85
2022/02/21 06:31:47;;;;;;;13.63;8.00;;;6.30;63.30;;;;;;5124806;27;20027;-85
2022/02/21 06:34:12;;;;;;;18.57;7.93;;;6.30;63.40;;;;;;5130555;27;20035;-85
2022/02/21 06:36:38;;;;;;;19.27;8.33;;;6.10;63.20;;;;;;5151920;27;20034;-85
2022/02/21 06:39:04;;;;;;;15.93;7.60;;;6.00;64.00;;;;;;5151950;27;20034;-86
2022/02/21 06:41:30;;;;;;;11.20;6.73;;;6.10;63.90;;;;;;5138548;27;20368;-85
2022/02/21 06:43:55;;;;;;;15.90;6.03;;;6.20;63.80;;;;;;5138504;27;20475;-85
2022/02/21 06:46:21;;;;;;;15.10;8.63;;;6.10;63.60;;;;;;5125874;27;20087;-85
2022/02/21 06:48:47;;;;;;;18.03;8.20;;;6.10;63.40;;;;;;5140908;27;20553;-85
2022/02/21 06:51:12;;;;;;;14.80;9.00;;;6.10;63.60;;;;;;5142927;27;20026;-85
2022/02/21 06:53:38;;;;;;;13.87;8.67;;;6.20;63.70;;;;;;5148597;27;20027;-85
2022/02/21 06:56:04;;;;;;;16.47;8.67;;;6.20;63.50;;;;;;5138868;27;20027;-85
2022/02/21 06:58:30;;;;;;;15.83;7.70;;;6.30;63.60;;;;;;5130178;27;20035;-85
2022/02/21 07:00:55;;;;;;;13.93;7.67;;;6.30;63.20;;;;;;5139609;27;20032;-84
2022/02/21 07:03:21;;;;;;;27.87;7.57;;;6.30;63.30;;;;;;5132245;27;20472;-85
2022/02/21 07:05:47;;;;;;;27.60;8.50;;;6.30;63.30;;;;;;5137456;27;20027;-84
2022/02/21 07:08:13;;;;;;;21.20;7.57;;;6.20;63.20;;;;;;5126677;27;20055;-84
2022/02/21 07:10:39;;;;;;;20.13;6.90;;;6.30;63.40;;;;;;5115636;27;20035;-85
2022/02/21 07:13:04;;;;;;;16.10;6.83;;;6.40;63.30;;;;;;5129403;27;20111;-85
2022/02/21 07:15:32;;;;;;;27.77;8.40;;;6.40;63.10;;;;;;5129432;27;20368;-85
2022/02/21 07:17:58;;;;;;;23.27;7.10;;;6.50;63.20;;;;;;5124338;27;20038;-84
2022/02/21 07:20:25;;;;;;;15.50;6.83;;;6.50;63.10;;;;;;5137976;27;20027;-84
2022/02/21 07:22:51;;;;;;;15.20;6.90;;;6.50;63.00;;;;;;5114460;27;20498;-84
2022/02/21 07:25:17;;;;;;;10.43;4.07;;;6.50;63.10;;;;;;5137141;27;20020;-85
2022/02/21 07:27:48;;;;;;;3.93;2.37;;;6.40;62.90;;;;;;5114126;28;20085;-85
2022/02/21 07:30:15;;;;;;;5.53;1.77;;;6.50;62.90;;;;;;5124804;27;20344;-85
2022/02/21 07:32:42;;;;;;;1.67;0.70;;;6.80;62.80;;;;;;5126250;27;20440;-85
2022/02/21 07:35:08;;;;;;;0.97;0.50;;;7.10;63.10;;;;;;5121104;27;20495;-84
2022/02/21 07:37:34;;;;;;;0.63;0.10;;;7.30;62.80;;;;;;5139970;27;20035;-84
2022/02/21 07:40:00;;;;;;;2.90;0.50;;;7.50;62.70;;;;;;5115281;28;20019;-85
2022/02/21 07:42:25;;;;;;;0.67;0.10;;;7.40;62.70;;;;;;5137933;27;20024;-85
2022/02/21 07:44:52;;;;;;;0.30;0.10;;;7.40;62.90;;;;;;5132977;27;20123;-84
2022/02/21 07:47:21;;;;;;;2.00;0.13;;;7.30;63.70;;;;;;5148534;27;20108;-85
2022/02/21 07:49:47;;;;;;;1.27;0.50;;;7.30;63.60;;;;;;5151837;27;20054;-85
2022/02/21 07:52:13;;;;;;;0.50;0.10;;;7.30;63.90;;;;;;5136317;27;20038;-85
2022/02/21 07:54:39;;;;;;;2.27;0.20;;;7.20;63.40;;;;;;5148053;27;20035;-85
2022/02/21 07:57:06;;;;;;;1.40;0.10;;;7.30;63.70;;;;;;5124425;27;20368;-85
2022/02/21 07:59:33;;;;;;;2.43;0.80;;;7.20;62.50;;;;;;5132309;27;20050;-84
2022/02/21 08:01:59;;;;;;;2.73;0.17;;;7.00;61.40;;;;;;5131772;27;20019;-84
2022/02/21 08:04:25;;;;;;;0.20;0.20;;;6.80;61.50;;;;;;5144180;27;20087;-83
2022/02/21 08:06:51;;;;;;;0.60;0.10;;;6.60;62.40;;;;;;5151240;27;20030;-84
2022/02/21 08:09:18;;;;;;;0.27;0.10;;;6.60;63.40;;;;;;5148640;27;20114;-84
2022/02/21 08:11:44;;;;;;;0.20;0.10;;;6.70;62.30;;;;;;5113313;28;20122;-83
2022/02/21 08:14:10;;;;;;;0.73;0.10;;;6.60;62.70;;;;;;5129859;27;20050;-84
2022/02/21 08:16:36;;;;;;;0.30;0.10;;;6.30;63.50;;;;;;5113059;28;20024;-84
2022/02/21 08:19:01;;;;;;;5.87;0.20;;;6.10;63.70;;;;;;5119135;27;20024;-83
2022/02/21 08:21:27;;;;;;;2.60;0.10;;;6.00;64.10;;;;;;5116244;27;20027;-84
2022/02/21 08:23:53;;;;;;;0.87;0.10;;;5.90;64.40;;;;;;5143086;27;20023;-84
2022/02/21 08:26:19;;;;;;;1.93;0.10;;;5.90;65.00;;;;;;5143005;27;20489;-84
2022/02/21 08:28:44;;;;;;;0.63;0.20;;;6.00;65.30;;;;;;5132749;27;20031;-83
2022/02/21 08:31:10;;;;;;;0.10;0.10;;;5.90;64.90;;;;;;5117905;27;20036;-83
2022/02/21 08:33:36;;;;;;;0.10;0.10;;;5.90;64.80;;;;;;5122591;27;20034;-83
2022/02/21 08:36:01;;;;;;;0.20;0.10;;;5.80;64.70;;;;;;5132012;27;20114;-83
2022/02/21 08:38:27;;;;;;;0.80;0.20;;;5.80;64.60;;;;;;5112268;28;20391;-84
2022/02/21 08:40:53;;;;;;;0.30;0.10;;;5.90;65.20;;;;;;5138199;27;20077;-84
2022/02/21 08:43:19;;;;;;;1.90;0.70;;;5.90;64.50;;;;;;5131465;27;20039;-84
2022/02/21 08:45:45;;;;;;;0.30;0.20;;;5.90;65.30;;;;;;5135893;27;20024;-83
2022/02/21 08:48:10;;;;;;;0.67;0.20;;;6.10;64.70;;;;;;5135144;27;20054;-83
2022/02/21 08:50:36;;;;;;;0.30;0.10;;;6.10;64.80;;;;;;5144052;27;20110;-84
2022/02/21 08:53:02;;;;;;;0.50;0.10;;;6.10;64.60;;;;;;5149931;27;20034;-84
2022/02/21 08:55:27;;;;;;;0.27;0.20;;;6.10;64.70;;;;;;5150057;27;20031;-83
2022/02/21 08:57:53;;;;;;;0.90;0.10;;;6.30;64.60;;;;;;5123834;27;20031;-83
2022/02/21 09:00:19;;;;;;;0.43;0.30;;;6.20;64.20;;;;;;5130086;27;20031;-84
2022/02/21 09:02:45;;;;;;;0.70;0.20;;;6.40;64.40;;;;;;5136545;27;20024;-84
2022/02/21 09:05:12;;;;;;;1.03;0.20;;;6.40;63.80;;;;;;5111883;27;20024;-84
2022/02/21 09:07:37;;;;;;;0.20;0.10;;;6.40;63.80;;;;;;5129830;27;20054;-84
2022/02/21 09:10:04;;;;;;;0.63;0.20;;;6.40;64.10;;;;;;5133947;27;20082;-84
2022/02/21 09:12:31;;;;;;;0.30;0.10;;;6.30;64.60;;;;;;5148909;27;20035;-84
2022/02/21 09:15:01;;;;;;;0.80;0.50;;;6.30;64.80;;;;;;5128675;27;20030;-84
2022/02/21 09:17:27;;;;;;;1.63;0.30;;;6.30;65.20;;;;;;5114841;27;20051;-84
2022/02/21 09:19:53;;;;;;;2.63;0.60;;;6.30;65.40;;;;;;5146620;27;20027;-84
2022/02/21 09:22:21;;;;;;;1.13;0.40;;;6.40;65.60;;;;;;5132542;27;20130;-84
2022/02/21 09:24:47;;;;;;;2.63;0.53;;;6.30;65.90;;;;;;5131921;27;20024;-84
2022/02/21 09:27:12;;;;;;;1.83;0.70;;;6.40;66.20;;;;;;5117819;27;20019;-83
2022/02/21 09:29:39;;;;;;;6.47;1.13;;;6.40;66.30;;;;;;5133855;27;20020;-84
2022/02/21 09:32:05;;;;;;;0.77;0.57;;;6.40;66.20;;;;;;5149764;27;20027;-84
2022/02/21 09:34:32;;;;;;;2.80;1.50;;;6.40;66.30;;;;;;5123926;27;20046;-84
2022/02/21 09:36:58;;;;;;;3.23;1.50;;;6.60;66.60;;;;;;5133277;27;20028;-84
2022/02/21 09:39:24;;;;;;;3.20;0.93;;;6.90;66.20;;;;;;5124898;27;20031;-84
2022/02/21 09:41:50;;;;;;;2.23;0.70;;;7.00;65.50;;;;;;5116125;27;20026;-84
2022/02/21 09:44:17;;;;;;;1.30;0.40;;;7.00;65.10;;;;;;5112009;28;20668;-83
2022/02/21 09:46:46;;;;;;;0.57;0.20;;;7.00;64.10;;;;;;5120664;28;20043;-84
2022/02/21 09:49:14;;;;;;;1.90;0.47;;;7.00;63.70;;;;;;5149790;27;20405;-84
2022/02/21 09:51:40;;;;;;;0.23;0.20;;;7.20;62.50;;;;;;5128372;27;20027;-84
2022/02/21 09:54:05;;;;;;;0.70;0.30;;;7.30;61.80;;;;;;5133251;27;20080;-84
2022/02/21 09:56:33;;;;;;;0.53;0.20;;;7.70;61.70;;;;;;5151597;27;20452;-84
2022/02/21 09:58:58;;;;;;;1.70;0.57;;;8.00;60.20;;;;;;5148308;27;20021;-84
2022/02/21 10:01:25;;;;;;;1.80;0.90;;;7.90;59.10;;;;;;5115409;27;20442;-83
2022/02/21 10:03:54;;;;;;;1.77;0.40;;;7.70;59.60;;;;;;5128300;27;20047;-84
2022/02/21 10:06:25;;;;;;;2.13;0.53;;;7.40;60.60;;;;;;5126917;27;20051;-84
2022/02/21 10:09:03;;;;;;;1.83;0.80;;;7.30;61.30;;;;;;5121856;27;20106;-84
2022/02/21 10:11:32;;;;;;;3.47;0.87;;;7.20;62.00;;;;;;5132074;27;20035;-83
2022/02/21 10:14:05;;;;;;;2.63;0.70;;;7.20;62.50;;;;;;5147369;27;20422;-84
2022/02/21 10:16:36;;;;;;;;;;;7.20;63.20;;;;;;5136229;27;20023;-84
2022/02/21 10:19:09;;;;;;;2.70;0.80;;;7.30;63.20;;;;;;5143324;27;19922;-84
2022/02/21 10:21:47;;;;;;;3.13;0.70;;;7.40;63.40;;;;;;5149363;27;20025;-84
2022/02/21 10:24:13;;;;;;;3.37;0.80;;;7.40;63.50;;;;;;5135310;27;20030;-83
2022/02/21 10:26:41;;;;;;;6.90;0.90;;;7.40;63.70;;;;;;5135440;27;20387;-83
2022/02/21 10:32:23;;;;;;;2.07;0.70;;;7.40;64.50;;;;;;5127678;27;20027;-83
2022/02/21 10:34:50;;;;;;;2.03;0.60;;;7.40;64.90;;;;;;5133858;27;20649;-83
2022/02/21 10:37:27;;;;;;;2.07;1.23;;;7.40;64.60;;;;;;5134659;27;20046;-83
2022/02/21 10:40:12;;;;;;;3.03;2.03;;;7.40;65.10;;;;;;5128518;27;20051;-84
2022/02/21 10:42:38;;;;;;;7.00;2.17;;;7.40;65.30;;;;;;5117362;27;20055;-83
2022/02/21 10:45:16;;;;;;;6.27;1.70;;;7.50;65.20;;;;;;5133272;27;20378;-84
2022/02/21 10:48:10;;;;;;;9.33;4.03;;;7.60;65.60;;;;;;5125924;27;20051;-84
2022/02/21 10:50:52;;;;;;;2.37;1.37;;;7.60;65.50;;;;;;5127473;27;20027;-84
2022/02/21 10:53:23;;;;;;;2.33;1.25;;;7.50;65.30;;;;;;5132140;27;20023;-84
2022/02/21 10:55:53;;;;;;;4.87;1.17;;;7.60;65.50;;;;;;5115550;27;20043;-84
2022/02/21 10:58:26;;;;;;;3.10;1.47;;;7.70;65.40;;;;;;5143939;27;20023;-84
2022/02/21 11:00:54;;;;;;;2.60;1.20;;;7.70;65.20;;;;;;5151208;27;20038;-84
2022/02/21 11:03:21;;;;;;;3.10;1.13;;;7.90;65.40;;;;;;5122561;27;20037;-84
2022/02/21 11:05:48;;;;;;;3.40;0.97;;;8.00;65.30;;;;;;5132743;27;20022;-84
2022/02/21 11:08:19;;;;;;;1.60;0.80;;;8.30;65.20;;;;;;5143242;27;20031;-84
2022/02/21 11:10:48;;;;;;;2.53;0.63;;;8.60;65.00;;;;;;5146759;27;20037;-85
2022/02/21 11:13:16;;;;;;;1.90;0.80;;;8.90;64.80;;;;;;5130270;27;20690;-84
2022/02/21 11:15:42;;;;;;;2.60;0.77;;;9.20;64.20;;;;;;5130489;27;20110;-84
2022/02/21 11:18:17;;;;;;;0.97;0.63;;;9.30;63.10;;;;;;5122725;27;20114;-84
2022/02/21 11:20:44;;;;;;;5.67;0.83;;;9.40;62.70;;;;;;5146044;27;20429;-84
2022/02/21 11:23:11;;;;;;;3.27;1.00;;;9.40;62.30;;;;;;5117528;27;20073;-84
2022/02/21 11:25:54;;;;;;;2.40;0.60;;;9.30;62.20;;;;;;5142123;27;20034;-84
2022/02/21 11:28:33;;;;;;;1.43;0.50;;;9.40;62.00;;;;;;5151360;27;20118;-84
2022/02/21 11:31:02;;;;;;;0.80;0.50;;;9.40;61.50;;;;;;5141584;27;20030;-84
2022/02/21 11:33:28;;;;;;;0.70;0.40;;;9.30;61.40;;;;;;5139511;27;20035;-84
2022/02/21 11:36:12;;;;;;;1.30;0.53;;;9.30;61.20;;;;;;5135335;27;20479;-84
2022/02/21 11:38:41;;;;;;;1.27;0.60;;;9.40;60.90;;;;;;5135035;27;20023;-83
2022/02/21 11:41:12;;;;;;;1.40;0.57;;;9.40;60.30;;;;;;5142088;27;20433;-84
2022/02/21 11:43:43;;;;;;;1.30;0.70;;;9.40;60.00;;;;;;5131389;27;20387;-84
2022/02/21 11:46:16;;;;;;;2.83;0.63;;;9.50;60.10;;;;;;5135512;27;20474;-83
2022/02/21 11:48:59;;;;;;;1.27;0.60;;;9.70;59.90;;;;;;5148703;27;20040;-83
2022/02/21 11:51:34;;;;;;;1.95;0.47;;;9.90;59.60;;;;;;5125205;27;20182;-83
2022/02/21 11:54:12;;;;;;;1.50;0.50;;;10.00;59.50;;;;;;5126204;27;20035;-83
2022/02/21 11:56:55;;;;;;;3.47;0.60;;;10.20;58.90;;;;;;5135157;27;20462;-84
2022/02/21 11:59:21;;;;;;;2.03;0.50;;;10.20;58.60;;;;;;5121204;27;20027;-83
2022/02/21 12:01:47;;;;;;;2.60;0.70;;;10.20;59.00;;;;;;5129633;27;20027;-84
2022/02/21 12:04:17;;;;;;;0.80;0.50;;;10.10;57.70;;;;;;5133814;27;20023;-83
2022/02/21 12:06:54;;;;;;;2.53;1.20;;;10.00;58.00;;;;;;5123479;27;20043;-84
2022/02/21 12:09:20;;;;;;;2.63;0.77;;;10.20;58.00;;;;;;5134100;27;20023;-84
2022/02/21 12:11:46;;;;;;;1.50;0.80;;;10.40;57.70;;;;;;5151009;27;20088;-84
2022/02/21 12:14:12;;;;;;;1.87;0.50;;;10.40;57.40;;;;;;5134620;27;20023;-83
2022/02/21 12:17:05;;;;;;;3.53;0.50;;;10.40;57.50;;;;;;5145153;27;20028;-84
2022/02/21 12:19:33;;;;;;;3.10;0.70;;;10.60;57.20;;;;;;5123061;27;20065;-84
2022/02/21 12:22:13;;;;;;;2.10;0.70;;;10.80;57.20;;;;;;5126829;27;20053;-84
2022/02/21 12:25:10;;;;;;;1.10;0.67;;;10.90;56.60;;;;;;5117357;27;20015;-84
2022/02/21 12:27:37;;;;;;;2.53;0.67;;;11.10;56.20;;;;;;5141341;27;20480;-84
2022/02/21 12:30:04;;;;;;;2.03;0.63;;;11.30;55.90;;;;;;5128940;27;20034;-84
2022/02/21 12:32:29;;;;;;;1.90;0.73;;;11.40;55.70;;;;;;5140847;27;20028;-84
2022/02/21 12:34:56;;;;;;;3.97;0.60;;;11.40;55.20;;;;;;5147906;27;20023;-84
2022/02/21 12:37:22;;;;;;;1.57;0.80;;;11.50;55.20;;;;;;5150845;27;20062;-84
2022/02/21 12:39:47;;;;;;;2.20;0.80;;;11.60;55.00;;;;;;5152143;27;20024;-84
2022/02/21 12:42:16;;;;;;;2.07;0.73;;;11.60;54.90;;;;;;5147111;27;20114;-84
2022/02/21 12:44:42;;;;;;;1.67;0.90;;;11.70;54.50;;;;;;5134832;27;20031;-84
2022/02/21 12:47:08;;;;;;;1.00;0.60;;;11.70;54.40;;;;;;5144550;27;20051;-84
2022/02/21 12:49:35;;;;;;;4.10;0.60;;;11.80;53.90;;;;;;5133879;27;20026;-84
2022/02/21 12:52:07;;;;;;;4.20;0.70;;;11.90;53.70;;;;;;5121561;27;20084;-84
2022/02/21 12:54:37;;;;;;;4.10;1.38;;;12.00;53.30;;;;;;5122779;27;20107;-84
2022/02/21 12:57:04;;;;;;;2.57;0.50;;;12.10;53.10;;;;;;5134289;27;20023;-84